Airfield :
LOGIN :

Register | Disclaimer

   EN    FR    IT 

 










Legend :    VFR   Marginal VFR   IFR   Intensive IFR   Very Intensive IFR
Visi :
Ceiling :
>= 8 km
>= 3000ft
5 to 8 km
1000 to 3000 ft
1500m to 5 km
500 to 1000 ft
800 to 1500m
200 to 500 ft
< 800m
< 200 ft
Symbols :   Thunderstorms  Fog  Heavy snow  Heavy precipitations  Wind > 20 kt
SIGMETs :     Misc.  Thunderstorms  Icing  Turbulence  Mountain Waves  Volcanic Ashes







- Airport Elevation : -15 ft
- IATA code : RTM


EHRD - Rotterdam Zestienhoven

CURRENT METAR :
  • 231425Z AUTO 31011KT 260V360 9999 NSC 18/10 Q1021 NOSIG

EXPIRED METARs :
  • 231355Z AUTO 30011KT 260V360 9999 NSC 19/11 Q1021 NOSIG
  • 231325Z AUTO 30010KT 260V350 9999 NSC 18/11 Q1020 NOSIG
  • 231255Z AUTO 29012KT 250V330 9999 NSC 19/13 Q1020 NOSIG
  • 231225Z AUTO 29010KT 240V340 9999 // NSC 19/11 Q1020 RERAUP NOSIG
  • 231155Z AUTO 30010KT 250V340 9999 NSC 19/12 Q1020 NOSIG

TAF TAF EHRD
Valid from the 23 at 12:00 until the 24 at 18:00 UTC


231102Z 2312/2418 31015KT CAVOK
BECMG 2317/2320 VRB03KT
PROB30
TEMPO 2401/2404 4500 MIFG
BECMG 2407/2410 29012KT SCT030
No reported NOTAMs for that airfield.



MET'MAP, your aeronautical weather chart ! - Copyright ORBIFLY December 2007 - Disclaimer

ORBIFLY MET'MAP TEAM :

Programming & Development : Alexandra Zaïnal
Concept & Development : Baudouin d'Aumeries
Co-Development & Prog : Marc-Olivier Méhu
Technical & hardware support : Manuel Goepfert

Contact : metmap@orbifly.com




SOURCES & CREDITS :

   NOAA